sensor_id;sensor_type;location;lat;lon;timestamp;temperature;humidity
46231;DHT22;31949;51.404;-0.038;2023-02-03T00:02:14;9.70;99.90
46231;DHT22;31949;51.404;-0.038;2023-02-03T00:04:41;9.70;99.90
46231;DHT22;31949;51.404;-0.038;2023-02-03T00:07:12;9.70;99.90
46231;DHT22;31949;51.404;-0.038;2023-02-03T00:09:40;9.60;99.90
46231;DHT22;31949;51.404;-0.038;2023-02-03T00:12:08;9.60;99.90
46231;DHT22;31949;51.404;-0.038;2023-02-03T00:14:35;9.60;99.90
46231;DHT22;31949;51.404;-0.038;2023-02-03T00:17:04;9.60;99.90
46231;DHT22;31949;51.404;-0.038;2023-02-03T00:19:31;9.60;99.90
46231;DHT22;31949;51.404;-0.038;2023-02-03T00:21:59;9.60;99.90
46231;DHT22;31949;51.404;-0.038;2023-02-03T00:24:26;9.60;99.90
46231;DHT22;31949;51.404;-0.038;2023-02-03T00:26:53;9.60;99.90
46231;DHT22;31949;51.404;-0.038;2023-02-03T00:29:21;9.60;99.90
46231;DHT22;31949;51.404;-0.038;2023-02-03T00:31:52;9.70;99.90
46231;DHT22;31949;51.404;-0.038;2023-02-03T00:34:20;9.70;99.90
46231;DHT22;31949;51.404;-0.038;2023-02-03T00:36:47;9.70;99.90
46231;DHT22;31949;51.404;-0.038;2023-02-03T00:39:15;9.70;99.90
46231;DHT22;31949;51.404;-0.038;2023-02-03T00:41:42;9.70;99.90
46231;DHT22;31949;51.404;-0.038;2023-02-03T00:44:09;9.70;99.90
46231;DHT22;31949;51.404;-0.038;2023-02-03T00:46:36;9.70;99.90
46231;DHT22;31949;51.404;-0.038;2023-02-03T00:49:04;9.80;99.90
46231;DHT22;31949;51.404;-0.038;2023-02-03T00:51:32;9.80;99.90
46231;DHT22;31949;51.404;-0.038;2023-02-03T00:54:00;9.80;99.90
46231;DHT22;31949;51.404;-0.038;2023-02-03T00:56:28;9.90;99.90
46231;DHT22;31949;51.404;-0.038;2023-02-03T00:58:56;9.90;99.90
46231;DHT22;31949;51.404;-0.038;2023-02-03T01:01:23;9.80;99.90
46231;DHT22;31949;51.404;-0.038;2023-02-03T01:03:50;9.80;99.90
46231;DHT22;31949;51.404;-0.038;2023-02-03T01:06:18;9.90;99.90
46231;DHT22;31949;51.404;-0.038;2023-02-03T01:08:47;9.90;99.90
46231;DHT22;31949;51.404;-0.038;2023-02-03T01:11:17;9.90;99.90
46231;DHT22;31949;51.404;-0.038;2023-02-03T01:13:45;9.90;99.90
46231;DHT22;31949;51.404;-0.038;2023-02-03T01:16:14;9.90;99.90
46231;DHT22;31949;51.404;-0.038;2023-02-03T01:18:42;9.90;99.90
46231;DHT22;31949;51.404;-0.038;2023-02-03T01:21:12;10.00;99.90
46231;DHT22;31949;51.404;-0.038;2023-02-03T01:23:40;10.00;99.90
46231;DHT22;31949;51.404;-0.038;2023-02-03T01:26:12;10.00;99.90
46231;DHT22;31949;51.404;-0.038;2023-02-03T01:28:40;10.00;99.90
46231;DHT22;31949;51.404;-0.038;2023-02-03T01:31:16;10.00;99.90
46231;DHT22;31949;51.404;-0.038;2023-02-03T01:33:45;10.00;99.90
46231;DHT22;31949;51.404;-0.038;2023-02-03T01:36:17;10.00;99.90
46231;DHT22;31949;51.404;-0.038;2023-02-03T01:38:44;10.00;99.90
46231;DHT22;31949;51.404;-0.038;2023-02-03T01:41:18;10.00;99.90
46231;DHT22;31949;51.404;-0.038;2023-02-03T01:43:54;10.00;99.90
46231;DHT22;31949;51.404;-0.038;2023-02-03T01:46:32;10.00;99.90
46231;DHT22;31949;51.404;-0.038;2023-02-03T01:49:10;10.10;99.90
46231;DHT22;31949;51.404;-0.038;2023-02-03T01:51:41;10.10;99.90
46231;DHT22;31949;51.404;-0.038;2023-02-03T01:54:11;10.10;99.90
46231;DHT22;31949;51.404;-0.038;2023-02-03T01:56:42;10.10;99.90
46231;DHT22;31949;51.404;-0.038;2023-02-03T01:59:10;10.00;99.90
46231;DHT22;31949;51.404;-0.038;2023-02-03T02:01:39;10.00;99.90
46231;DHT22;31949;51.404;-0.038;2023-02-03T02:04:07;10.00;99.90
46231;DHT22;31949;51.404;-0.038;2023-02-03T02:06:35;10.00;99.90
46231;DHT22;31949;51.404;-0.038;2023-02-03T02:09:03;10.00;99.90
46231;DHT22;31949;51.404;-0.038;2023-02-03T02:11:30;10.00;99.90
46231;DHT22;31949;51.404;-0.038;2023-02-03T02:14:00;10.00;99.90
46231;DHT22;31949;51.404;-0.038;2023-02-03T02:16:32;10.00;99.90
46231;DHT22;31949;51.404;-0.038;2023-02-03T02:19:25;10.00;99.90
46231;DHT22;31949;51.404;-0.038;2023-02-03T02:22:40;9.90;99.90
46231;DHT22;31949;51.404;-0.038;2023-02-03T02:33:45;10.00;99.90
46231;DHT22;31949;51.404;-0.038;2023-02-03T02:38:57;10.00;99.90
46231;DHT22;31949;51.404;-0.038;2023-02-03T02:41:48;10.00;99.90
46231;DHT22;31949;51.404;-0.038;2023-02-03T02:44:22;10.00;99.90
46231;DHT22;31949;51.404;-0.038;2023-02-03T02:46:57;10.00;99.90
46231;DHT22;31949;51.404;-0.038;2023-02-03T02:49:30;10.00;99.90
46231;DHT22;31949;51.404;-0.038;2023-02-03T02:52:02;10.00;99.90
46231;DHT22;31949;51.404;-0.038;2023-02-03T02:54:31;10.10;99.90
46231;DHT22;31949;51.404;-0.038;2023-02-03T02:57:02;10.00;99.90
46231;DHT22;31949;51.404;-0.038;2023-02-03T02:59:31;10.10;99.90
46231;DHT22;31949;51.404;-0.038;2023-02-03T03:01:58;10.00;99.90
46231;DHT22;31949;51.404;-0.038;2023-02-03T03:04:27;10.00;99.90
46231;DHT22;31949;51.404;-0.038;2023-02-03T03:07:10;10.00;99.90
46231;DHT22;31949;51.404;-0.038;2023-02-03T03:09:43;10.00;99.90
46231;DHT22;31949;51.404;-0.038;2023-02-03T03:12:33;10.00;99.90
46231;DHT22;31949;51.404;-0.038;2023-02-03T03:15:08;10.00;99.90
46231;DHT22;31949;51.404;-0.038;2023-02-03T03:17:40;10.00;99.90
46231;DHT22;31949;51.404;-0.038;2023-02-03T03:20:11;10.00;99.90
46231;DHT22;31949;51.404;-0.038;2023-02-03T03:22:47;10.00;99.90
46231;DHT22;31949;51.404;-0.038;2023-02-03T03:25:24;10.10;99.90
46231;DHT22;31949;51.404;-0.038;2023-02-03T03:27:58;10.00;99.90
46231;DHT22;31949;51.404;-0.038;2023-02-03T03:30:36;10.00;99.90
46231;DHT22;31949;51.404;-0.038;2023-02-03T03:33:04;10.10;99.90
46231;DHT22;31949;51.404;-0.038;2023-02-03T03:38:24;10.00;99.90
46231;DHT22;31949;51.404;-0.038;2023-02-03T03:41:04;9.90;99.90
46231;DHT22;31949;51.404;-0.038;2023-02-03T03:43:38;9.90;99.90
46231;DHT22;31949;51.404;-0.038;2023-02-03T03:46:18;9.90;99.90
46231;DHT22;31949;51.404;-0.038;2023-02-03T03:48:53;9.90;99.90
46231;DHT22;31949;51.404;-0.038;2023-02-03T03:51:44;9.90;99.90
46231;DHT22;31949;51.404;-0.038;2023-02-03T03:54:16;9.90;99.90
46231;DHT22;31949;51.404;-0.038;2023-02-03T03:57:09;9.90;99.90
46231;DHT22;31949;51.404;-0.038;2023-02-03T03:59:44;9.80;99.90
46231;DHT22;31949;51.404;-0.038;2023-02-03T04:02:13;9.90;99.90
46231;DHT22;31949;51.404;-0.038;2023-02-03T04:04:43;9.80;99.90
46231;DHT22;31949;51.404;-0.038;2023-02-03T04:07:14;9.80;99.90
46231;DHT22;31949;51.404;-0.038;2023-02-03T04:09:41;9.80;99.90
46231;DHT22;31949;51.404;-0.038;2023-02-03T04:12:22;9.80;99.90
46231;DHT22;31949;51.404;-0.038;2023-02-03T04:14:49;9.80;99.90
46231;DHT22;31949;51.404;-0.038;2023-02-03T04:17:16;9.80;99.90
46231;DHT22;31949;51.404;-0.038;2023-02-03T04:19:47;9.80;99.90
46231;DHT22;31949;51.404;-0.038;2023-02-03T04:22:14;9.80;99.90
46231;DHT22;31949;51.404;-0.038;2023-02-03T04:24:41;9.70;99.90
46231;DHT22;31949;51.404;-0.038;2023-02-03T04:27:08;9.70;99.90
46231;DHT22;31949;51.404;-0.038;2023-02-03T04:29:35;9.70;99.90
46231;DHT22;31949;51.404;-0.038;2023-02-03T04:32:02;9.70;99.90
46231;DHT22;31949;51.404;-0.038;2023-02-03T04:34:29;9.70;99.90
46231;DHT22;31949;51.404;-0.038;2023-02-03T04:36:56;9.70;99.90
46231;DHT22;31949;51.404;-0.038;2023-02-03T04:39:24;9.70;99.90
46231;DHT22;31949;51.404;-0.038;2023-02-03T04:41:51;9.60;99.90
46231;DHT22;31949;51.404;-0.038;2023-02-03T04:44:18;9.60;99.90
46231;DHT22;31949;51.404;-0.038;2023-02-03T04:46:45;9.60;99.90
46231;DHT22;31949;51.404;-0.038;2023-02-03T04:49:12;9.60;99.90
46231;DHT22;31949;51.404;-0.038;2023-02-03T04:51:39;9.50;99.90
46231;DHT22;31949;51.404;-0.038;2023-02-03T04:54:06;9.50;99.90
46231;DHT22;31949;51.404;-0.038;2023-02-03T04:56:34;9.60;99.90
46231;DHT22;31949;51.404;-0.038;2023-02-03T04:59:01;9.60;99.90
46231;DHT22;31949;51.404;-0.038;2023-02-03T05:01:28;9.50;99.90
46231;DHT22;31949;51.404;-0.038;2023-02-03T05:03:55;9.50;99.90
46231;DHT22;31949;51.404;-0.038;2023-02-03T05:06:27;9.60;99.90
46231;DHT22;31949;51.404;-0.038;2023-02-03T05:08:55;9.50;99.90
46231;DHT22;31949;51.404;-0.038;2023-02-03T05:11:22;9.50;99.90
46231;DHT22;31949;51.404;-0.038;2023-02-03T05:13:50;9.60;99.90
46231;DHT22;31949;51.404;-0.038;2023-02-03T05:16:17;9.60;99.90
46231;DHT22;31949;51.404;-0.038;2023-02-03T05:18:44;9.60;99.90
46231;DHT22;31949;51.404;-0.038;2023-02-03T05:21:12;9.60;99.90
46231;DHT22;31949;51.404;-0.038;2023-02-03T05:23:39;9.60;99.90
46231;DHT22;31949;51.404;-0.038;2023-02-03T05:26:06;9.60;99.90
46231;DHT22;31949;51.404;-0.038;2023-02-03T05:28:33;9.60;99.90
46231;DHT22;31949;51.404;-0.038;2023-02-03T05:31:01;9.60;99.90
46231;DHT22;31949;51.404;-0.038;2023-02-03T05:33:29;9.60;99.90
46231;DHT22;31949;51.404;-0.038;2023-02-03T05:35:56;9.60;99.90
46231;DHT22;31949;51.404;-0.038;2023-02-03T05:38:23;9.60;99.90
46231;DHT22;31949;51.404;-0.038;2023-02-03T05:40:51;9.60;99.90
46231;DHT22;31949;51.404;-0.038;2023-02-03T05:43:37;9.60;99.90
46231;DHT22;31949;51.404;-0.038;2023-02-03T05:46:06;9.60;99.90
46231;DHT22;31949;51.404;-0.038;2023-02-03T05:48:33;9.50;99.90
46231;DHT22;31949;51.404;-0.038;2023-02-03T05:51:00;9.50;99.90
46231;DHT22;31949;51.404;-0.038;2023-02-03T05:53:27;9.50;99.90
46231;DHT22;31949;51.404;-0.038;2023-02-03T05:55:55;9.50;99.90
46231;DHT22;31949;51.404;-0.038;2023-02-03T05:58:22;9.50;99.90
46231;DHT22;31949;51.404;-0.038;2023-02-03T06:00:49;9.50;99.90
46231;DHT22;31949;51.404;-0.038;2023-02-03T06:03:17;9.60;99.90
46231;DHT22;31949;51.404;-0.038;2023-02-03T06:05:44;9.50;99.90
46231;DHT22;31949;51.404;-0.038;2023-02-03T06:08:11;9.50;99.90
46231;DHT22;31949;51.404;-0.038;2023-02-03T06:10:39;9.50;99.90
46231;DHT22;31949;51.404;-0.038;2023-02-03T06:13:10;9.50;99.90
46231;DHT22;31949;51.404;-0.038;2023-02-03T06:15:39;9.50;99.90
46231;DHT22;31949;51.404;-0.038;2023-02-03T06:18:06;9.50;99.90
46231;DHT22;31949;51.404;-0.038;2023-02-03T06:20:34;9.50;99.90
46231;DHT22;31949;51.404;-0.038;2023-02-03T06:23:01;9.50;99.90
46231;DHT22;31949;51.404;-0.038;2023-02-03T06:25:28;9.50;99.90
46231;DHT22;31949;51.404;-0.038;2023-02-03T06:27:58;9.50;99.90
46231;DHT22;31949;51.404;-0.038;2023-02-03T06:30:25;9.50;99.90
46231;DHT22;31949;51.404;-0.038;2023-02-03T06:32:54;9.50;99.90
46231;DHT22;31949;51.404;-0.038;2023-02-03T06:35:21;9.50;99.90
46231;DHT22;31949;51.404;-0.038;2023-02-03T06:37:48;9.50;99.90
46231;DHT22;31949;51.404;-0.038;2023-02-03T06:40:15;9.50;99.90
46231;DHT22;31949;51.404;-0.038;2023-02-03T06:42:46;9.50;99.90
46231;DHT22;31949;51.404;-0.038;2023-02-03T06:45:14;9.50;99.90
46231;DHT22;31949;51.404;-0.038;2023-02-03T06:47:42;9.50;99.90
46231;DHT22;31949;51.404;-0.038;2023-02-03T06:50:12;9.50;99.90
46231;DHT22;31949;51.404;-0.038;2023-02-03T06:52:39;9.50;99.90
46231;DHT22;31949;51.404;-0.038;2023-02-03T06:55:07;9.50;99.90
46231;DHT22;31949;51.404;-0.038;2023-02-03T06:57:34;9.40;99.90
46231;DHT22;31949;51.404;-0.038;2023-02-03T07:00:02;9.40;99.90
46231;DHT22;31949;51.404;-0.038;2023-02-03T07:02:29;9.40;99.90
46231;DHT22;31949;51.404;-0.038;2023-02-03T07:04:57;9.50;99.90
46231;DHT22;31949;51.404;-0.038;2023-02-03T07:07:24;9.40;99.90
46231;DHT22;31949;51.404;-0.038;2023-02-03T07:09:51;9.40;99.90
46231;DHT22;31949;51.404;-0.038;2023-02-03T07:12:18;9.40;99.90
46231;DHT22;31949;51.404;-0.038;2023-02-03T07:14:45;9.50;99.90
46231;DHT22;31949;51.404;-0.038;2023-02-03T07:17:12;9.40;99.90
46231;DHT22;31949;51.404;-0.038;2023-02-03T07:19:39;9.30;99.90
46231;DHT22;31949;51.404;-0.038;2023-02-03T07:22:09;9.50;99.90
46231;DHT22;31949;51.404;-0.038;2023-02-03T07:24:36;9.40;99.90
46231;DHT22;31949;51.404;-0.038;2023-02-03T07:27:03;9.40;99.90
46231;DHT22;31949;51.404;-0.038;2023-02-03T07:29:30;9.40;99.90
46231;DHT22;31949;51.404;-0.038;2023-02-03T07:31:57;9.40;99.90
46231;DHT22;31949;51.404;-0.038;2023-02-03T07:34:28;9.30;99.90
46231;DHT22;31949;51.404;-0.038;2023-02-03T07:36:56;9.30;99.90
46231;DHT22;31949;51.404;-0.038;2023-02-03T07:39:23;9.30;99.90
46231;DHT22;31949;51.404;-0.038;2023-02-03T07:41:50;9.30;99.90
46231;DHT22;31949;51.404;-0.038;2023-02-03T07:44:20;9.30;99.90
46231;DHT22;31949;51.404;-0.038;2023-02-03T07:46:47;9.30;99.90
46231;DHT22;31949;51.404;-0.038;2023-02-03T07:49:15;9.30;99.90
46231;DHT22;31949;51.404;-0.038;2023-02-03T07:51:42;9.30;99.90
46231;DHT22;31949;51.404;-0.038;2023-02-03T07:54:09;9.30;99.90
46231;DHT22;31949;51.404;-0.038;2023-02-03T07:56:36;9.40;99.90
46231;DHT22;31949;51.404;-0.038;2023-02-03T07:59:04;9.30;99.90
46231;DHT22;31949;51.404;-0.038;2023-02-03T08:01:31;9.30;99.90
46231;DHT22;31949;51.404;-0.038;2023-02-03T08:04:00;9.40;99.90
46231;DHT22;31949;51.404;-0.038;2023-02-03T08:06:28;9.30;99.90
46231;DHT22;31949;51.404;-0.038;2023-02-03T08:08:56;9.30;99.90
46231;DHT22;31949;51.404;-0.038;2023-02-03T08:11:23;9.30;99.90
46231;DHT22;31949;51.404;-0.038;2023-02-03T08:13:50;9.40;99.90
46231;DHT22;31949;51.404;-0.038;2023-02-03T08:16:17;9.40;99.90
46231;DHT22;31949;51.404;-0.038;2023-02-03T08:18:44;9.40;99.90
46231;DHT22;31949;51.404;-0.038;2023-02-03T08:21:12;9.40;99.90
46231;DHT22;31949;51.404;-0.038;2023-02-03T08:23:39;9.40;99.90
46231;DHT22;31949;51.404;-0.038;2023-02-03T08:26:06;9.40;99.90
46231;DHT22;31949;51.404;-0.038;2023-02-03T08:28:33;9.40;99.90
46231;DHT22;31949;51.404;-0.038;2023-02-03T08:31:00;9.50;99.90
46231;DHT22;31949;51.404;-0.038;2023-02-03T08:33:27;9.50;99.90
46231;DHT22;31949;51.404;-0.038;2023-02-03T08:35:55;9.50;99.90
46231;DHT22;31949;51.404;-0.038;2023-02-03T08:38:22;9.50;99.90
46231;DHT22;31949;51.404;-0.038;2023-02-03T08:40:50;9.50;99.90
46231;DHT22;31949;51.404;-0.038;2023-02-03T08:43:17;9.50;99.90
46231;DHT22;31949;51.404;-0.038;2023-02-03T08:45:44;9.60;99.90
46231;DHT22;31949;51.404;-0.038;2023-02-03T08:48:11;9.60;99.90
46231;DHT22;31949;51.404;-0.038;2023-02-03T08:50:43;9.60;99.90
46231;DHT22;31949;51.404;-0.038;2023-02-03T08:53:11;9.60;99.90
46231;DHT22;31949;51.404;-0.038;2023-02-03T08:55:39;9.70;99.90
46231;DHT22;31949;51.404;-0.038;2023-02-03T08:58:06;9.70;99.90
46231;DHT22;31949;51.404;-0.038;2023-02-03T09:00:33;9.80;99.90
46231;DHT22;31949;51.404;-0.038;2023-02-03T09:03:00;9.80;99.90
46231;DHT22;31949;51.404;-0.038;2023-02-03T09:05:30;9.80;99.90
46231;DHT22;31949;51.404;-0.038;2023-02-03T09:07:57;9.80;99.90
46231;DHT22;31949;51.404;-0.038;2023-02-03T09:10:25;9.80;99.90
46231;DHT22;31949;51.404;-0.038;2023-02-03T09:12:52;9.90;99.90
46231;DHT22;31949;51.404;-0.038;2023-02-03T09:15:20;9.90;99.90
46231;DHT22;31949;51.404;-0.038;2023-02-03T09:17:47;9.90;99.90
46231;DHT22;31949;51.404;-0.038;2023-02-03T09:20:14;10.00;99.90
46231;DHT22;31949;51.404;-0.038;2023-02-03T09:22:42;10.00;99.90
46231;DHT22;31949;51.404;-0.038;2023-02-03T09:25:09;10.00;99.90
46231;DHT22;31949;51.404;-0.038;2023-02-03T09:27:37;10.00;99.90
46231;DHT22;31949;51.404;-0.038;2023-02-03T09:30:04;10.10;99.90
46231;DHT22;31949;51.404;-0.038;2023-02-03T09:32:32;10.10;99.90
46231;DHT22;31949;51.404;-0.038;2023-02-03T09:35:00;10.10;99.90
46231;DHT22;31949;51.404;-0.038;2023-02-03T09:37:28;10.20;99.90
46231;DHT22;31949;51.404;-0.038;2023-02-03T09:39:56;10.20;99.90
46231;DHT22;31949;51.404;-0.038;2023-02-03T09:43:11;10.30;99.90
46231;DHT22;31949;51.404;-0.038;2023-02-03T09:45:39;10.30;99.90
46231;DHT22;31949;51.404;-0.038;2023-02-03T09:48:15;10.30;99.90
46231;DHT22;31949;51.404;-0.038;2023-02-03T09:50:45;10.30;99.90
46231;DHT22;31949;51.404;-0.038;2023-02-03T09:53:34;10.40;99.90
46231;DHT22;31949;51.404;-0.038;2023-02-03T09:56:05;10.50;99.90
46231;DHT22;31949;51.404;-0.038;2023-02-03T09:58:38;10.50;99.90
46231;DHT22;31949;51.404;-0.038;2023-02-03T10:01:09;10.60;99.90
46231;DHT22;31949;51.404;-0.038;2023-02-03T10:03:51;10.70;99.90
46231;DHT22;31949;51.404;-0.038;2023-02-03T10:06:40;10.70;99.90
46231;DHT22;31949;51.404;-0.038;2023-02-03T10:18:15;10.90;99.90
46231;DHT22;31949;51.404;-0.038;2023-02-03T10:20:52;10.90;99.90
46231;DHT22;31949;51.404;-0.038;2023-02-03T10:23:33;10.90;99.90
46231;DHT22;31949;51.404;-0.038;2023-02-03T10:26:05;11.00;99.90
46231;DHT22;31949;51.404;-0.038;2023-02-03T10:28:57;11.00;99.90
46231;DHT22;31949;51.404;-0.038;2023-02-03T10:31:26;11.10;99.90
46231;DHT22;31949;51.404;-0.038;2023-02-03T10:34:14;11.10;99.90
46231;DHT22;31949;51.404;-0.038;2023-02-03T10:37:01;11.20;99.90
46231;DHT22;31949;51.404;-0.038;2023-02-03T10:39:45;11.20;99.90
46231;DHT22;31949;51.404;-0.038;2023-02-03T10:42:17;11.30;99.90
46231;DHT22;31949;51.404;-0.038;2023-02-03T10:44:58;11.40;99.90
46231;DHT22;31949;51.404;-0.038;2023-02-03T10:47:29;11.50;99.90
46231;DHT22;31949;51.404;-0.038;2023-02-03T10:50:15;11.50;99.90
46231;DHT22;31949;51.404;-0.038;2023-02-03T10:52:43;11.60;99.90
46231;DHT22;31949;51.404;-0.038;2023-02-03T10:55:30;11.70;99.90
46231;DHT22;31949;51.404;-0.038;2023-02-03T10:58:07;11.70;99.90
46231;DHT22;31949;51.404;-0.038;2023-02-03T11:00:38;11.80;99.90
46231;DHT22;31949;51.404;-0.038;2023-02-03T11:05:39;11.90;99.90
46231;DHT22;31949;51.404;-0.038;2023-02-03T11:08:29;11.90;99.90
46231;DHT22;31949;51.404;-0.038;2023-02-03T11:11:08;12.00;99.90
46231;DHT22;31949;51.404;-0.038;2023-02-03T11:13:39;12.00;99.90
46231;DHT22;31949;51.404;-0.038;2023-02-03T11:16:17;12.10;99.90
46231;DHT22;31949;51.404;-0.038;2023-02-03T11:21:32;12.10;99.90
46231;DHT22;31949;51.404;-0.038;2023-02-03T11:24:27;12.20;99.90
46231;DHT22;31949;51.404;-0.038;2023-02-03T11:26:59;12.30;99.90
46231;DHT22;31949;51.404;-0.038;2023-02-03T11:29:33;12.40;99.90
46231;DHT22;31949;51.404;-0.038;2023-02-03T11:32:43;12.40;99.90
46231;DHT22;31949;51.404;-0.038;2023-02-03T11:35:22;12.60;99.90
46231;DHT22;31949;51.404;-0.038;2023-02-03T11:37:58;12.60;99.90
46231;DHT22;31949;51.404;-0.038;2023-02-03T11:40:33;12.60;99.90
46231;DHT22;31949;51.404;-0.038;2023-02-03T11:43:14;12.60;99.90
46231;DHT22;31949;51.404;-0.038;2023-02-03T11:45:52;12.70;99.90
46231;DHT22;31949;51.404;-0.038;2023-02-03T11:48:43;12.70;99.90
46231;DHT22;31949;51.404;-0.038;2023-02-03T11:51:31;12.70;99.90
46231;DHT22;31949;51.404;-0.038;2023-02-03T11:57:18;12.60;99.90
46231;DHT22;31949;51.404;-0.038;2023-02-03T12:03:10;12.70;99.90
46231;DHT22;31949;51.404;-0.038;2023-02-03T12:08:30;12.70;99.90
46231;DHT22;31949;51.404;-0.038;2023-02-03T12:11:19;12.80;99.90
46231;DHT22;31949;51.404;-0.038;2023-02-03T12:14:22;12.90;99.90
46231;DHT22;31949;51.404;-0.038;2023-02-03T12:37:15;13.10;99.90
46231;DHT22;31949;51.404;-0.038;2023-02-03T12:39:57;13.10;99.90
46231;DHT22;31949;51.404;-0.038;2023-02-03T12:42:34;13.20;99.90
46231;DHT22;31949;51.404;-0.038;2023-02-03T12:45:16;13.20;99.90
46231;DHT22;31949;51.404;-0.038;2023-02-03T12:50:41;13.20;99.90
46231;DHT22;31949;51.404;-0.038;2023-02-03T12:53:34;13.30;99.90
46231;DHT22;31949;51.404;-0.038;2023-02-03T13:01:22;13.30;99.90
46231;DHT22;31949;51.404;-0.038;2023-02-03T13:04:17;13.30;99.90
46231;DHT22;31949;51.404;-0.038;2023-02-03T13:18:00;13.20;99.90
46231;DHT22;31949;51.404;-0.038;2023-02-03T13:20:32;13.20;99.90
46231;DHT22;31949;51.404;-0.038;2023-02-03T13:23:09;13.20;99.90
46231;DHT22;31949;51.404;-0.038;2023-02-03T13:42:25;13.40;99.90
46231;DHT22;31949;51.404;-0.038;2023-02-03T13:45:40;13.50;99.90
46231;DHT22;31949;51.404;-0.038;2023-02-03T13:48:24;13.50;99.90
46231;DHT22;31949;51.404;-0.038;2023-02-03T13:51:41;13.50;99.90
46231;DHT22;31949;51.404;-0.038;2023-02-03T13:54:23;13.50;99.90
46231;DHT22;31949;51.404;-0.038;2023-02-03T13:56:54;13.50;99.90
46231;DHT22;31949;51.404;-0.038;2023-02-03T13:59:39;13.50;99.90
46231;DHT22;31949;51.404;-0.038;2023-02-03T14:04:52;13.50;99.90
46231;DHT22;31949;51.404;-0.038;2023-02-03T14:07:34;13.60;99.90
46231;DHT22;31949;51.404;-0.038;2023-02-03T14:20:45;13.60;99.90
46231;DHT22;31949;51.404;-0.038;2023-02-03T14:23:37;13.60;99.90
46231;DHT22;31949;51.404;-0.038;2023-02-03T14:26:05;13.60;99.90
46231;DHT22;31949;51.404;-0.038;2023-02-03T14:28:42;13.60;99.90
46231;DHT22;31949;51.404;-0.038;2023-02-03T14:31:18;13.70;99.90
46231;DHT22;31949;51.404;-0.038;2023-02-03T14:34:07;13.70;99.90
46231;DHT22;31949;51.404;-0.038;2023-02-03T14:36:42;13.70;99.90
46231;DHT22;31949;51.404;-0.038;2023-02-03T14:50:52;13.50;99.90
46231;DHT22;31949;51.404;-0.038;2023-02-03T14:56:51;13.40;99.90
46231;DHT22;31949;51.404;-0.038;2023-02-03T15:04:48;13.30;99.90
46231;DHT22;31949;51.404;-0.038;2023-02-03T15:07:40;13.30;99.90
46231;DHT22;31949;51.404;-0.038;2023-02-03T15:10:22;13.30;99.90
46231;DHT22;31949;51.404;-0.038;2023-02-03T15:12:55;13.20;99.90
46231;DHT22;31949;51.404;-0.038;2023-02-03T15:15:29;13.20;99.90
46231;DHT22;31949;51.404;-0.038;2023-02-03T15:17:59;13.10;99.90
46231;DHT22;31949;51.404;-0.038;2023-02-03T15:20:46;13.10;99.90
46231;DHT22;31949;51.404;-0.038;2023-02-03T15:23:28;13.10;99.90
46231;DHT22;31949;51.404;-0.038;2023-02-03T15:26:01;13.10;99.90
46231;DHT22;31949;51.404;-0.038;2023-02-03T15:28:29;13.00;99.90
46231;DHT22;31949;51.404;-0.038;2023-02-03T15:31:06;13.00;99.90
46231;DHT22;31949;51.404;-0.038;2023-02-03T15:33:37;12.90;99.90
46231;DHT22;31949;51.404;-0.038;2023-02-03T15:36:10;12.80;99.90
46231;DHT22;31949;51.404;-0.038;2023-02-03T15:38:45;12.80;99.90
46231;DHT22;31949;51.404;-0.038;2023-02-03T15:41:22;12.70;99.90
46231;DHT22;31949;51.404;-0.038;2023-02-03T15:44:03;12.60;99.90
46231;DHT22;31949;51.404;-0.038;2023-02-03T15:46:44;12.60;99.90
46231;DHT22;31949;51.404;-0.038;2023-02-03T15:49:25;12.60;99.90
46231;DHT22;31949;51.404;-0.038;2023-02-03T15:52:18;12.60;99.90
46231;DHT22;31949;51.404;-0.038;2023-02-03T15:54:49;12.60;99.90
46231;DHT22;31949;51.404;-0.038;2023-02-03T15:57:24;12.60;99.90
46231;DHT22;31949;51.404;-0.038;2023-02-03T15:59:55;12.60;99.90
46231;DHT22;31949;51.404;-0.038;2023-02-03T16:02:28;12.60;99.90
46231;DHT22;31949;51.404;-0.038;2023-02-03T16:04:57;12.50;99.90
46231;DHT22;31949;51.404;-0.038;2023-02-03T16:07:27;12.50;99.90
46231;DHT22;31949;51.404;-0.038;2023-02-03T16:09:57;12.50;99.90
46231;DHT22;31949;51.404;-0.038;2023-02-03T16:12:30;12.40;99.90
46231;DHT22;31949;51.404;-0.038;2023-02-03T16:14:59;12.30;99.90
46231;DHT22;31949;51.404;-0.038;2023-02-03T16:17:36;12.30;99.90
46231;DHT22;31949;51.404;-0.038;2023-02-03T16:22:58;12.20;99.90
46231;DHT22;31949;51.404;-0.038;2023-02-03T16:25:28;12.20;99.90
46231;DHT22;31949;51.404;-0.038;2023-02-03T16:31:00;12.10;99.90
46231;DHT22;31949;51.404;-0.038;2023-02-03T16:33:48;12.00;99.90
46231;DHT22;31949;51.404;-0.038;2023-02-03T16:36:42;12.00;99.90
46231;DHT22;31949;51.404;-0.038;2023-02-03T16:39:29;11.90;99.90
46231;DHT22;31949;51.404;-0.038;2023-02-03T16:42:19;11.90;99.90
46231;DHT22;31949;51.404;-0.038;2023-02-03T16:45:12;11.90;99.90
46231;DHT22;31949;51.404;-0.038;2023-02-03T16:47:59;11.80;99.90
46231;DHT22;31949;51.404;-0.038;2023-02-03T16:50:45;11.80;99.90
46231;DHT22;31949;51.404;-0.038;2023-02-03T16:53:27;11.80;99.90
46231;DHT22;31949;51.404;-0.038;2023-02-03T16:55:58;11.70;99.90
46231;DHT22;31949;51.404;-0.038;2023-02-03T16:58:27;11.70;99.90
46231;DHT22;31949;51.404;-0.038;2023-02-03T17:00:54;11.80;99.90
46231;DHT22;31949;51.404;-0.038;2023-02-03T17:03:25;11.70;99.90
46231;DHT22;31949;51.404;-0.038;2023-02-03T17:05:55;11.70;99.90
46231;DHT22;31949;51.404;-0.038;2023-02-03T17:08:24;11.80;99.90
46231;DHT22;31949;51.404;-0.038;2023-02-03T17:10:52;11.70;99.90
46231;DHT22;31949;51.404;-0.038;2023-02-03T17:13:21;11.70;99.90
46231;DHT22;31949;51.404;-0.038;2023-02-03T17:15:51;11.70;99.90
46231;DHT22;31949;51.404;-0.038;2023-02-03T17:18:21;11.70;99.90
46231;DHT22;31949;51.404;-0.038;2023-02-03T17:20:51;11.70;99.90
46231;DHT22;31949;51.404;-0.038;2023-02-03T17:23:19;11.70;99.90
46231;DHT22;31949;51.404;-0.038;2023-02-03T17:25:48;11.60;99.90
46231;DHT22;31949;51.404;-0.038;2023-02-03T17:28:16;11.60;99.90
46231;DHT22;31949;51.404;-0.038;2023-02-03T17:30:43;11.60;99.90
46231;DHT22;31949;51.404;-0.038;2023-02-03T17:33:10;11.60;99.90
46231;DHT22;31949;51.404;-0.038;2023-02-03T17:35:42;11.60;99.90
46231;DHT22;31949;51.404;-0.038;2023-02-03T17:38:11;11.60;99.90
46231;DHT22;31949;51.404;-0.038;2023-02-03T17:40:42;11.50;99.90
46231;DHT22;31949;51.404;-0.038;2023-02-03T17:43:28;11.50;99.90
46231;DHT22;31949;51.404;-0.038;2023-02-03T17:46:21;11.50;99.90
46231;DHT22;31949;51.404;-0.038;2023-02-03T17:49:06;11.40;99.90
46231;DHT22;31949;51.404;-0.038;2023-02-03T17:51:51;11.40;99.90
46231;DHT22;31949;51.404;-0.038;2023-02-03T17:54:35;11.40;99.90
46231;DHT22;31949;51.404;-0.038;2023-02-03T17:57:02;11.30;99.90
46231;DHT22;31949;51.404;-0.038;2023-02-03T17:59:30;11.30;99.90
46231;DHT22;31949;51.404;-0.038;2023-02-03T18:01:58;11.30;99.90
46231;DHT22;31949;51.404;-0.038;2023-02-03T18:04:25;11.30;99.90
46231;DHT22;31949;51.404;-0.038;2023-02-03T18:06:52;11.30;99.90
46231;DHT22;31949;51.404;-0.038;2023-02-03T18:09:20;11.20;99.90
46231;DHT22;31949;51.404;-0.038;2023-02-03T18:11:47;11.20;99.90